createdAt,value
2022-10-12T00:00:05.695Z,91.40
2022-10-12T00:04:27.074Z,91.00
2022-10-12T00:08:42.231Z,90.80
2022-10-12T00:12:55.881Z,90.70
2022-10-12T00:17:09.735Z,90.50
2022-10-12T00:21:25.874Z,90.30
2022-10-12T00:25:40.916Z,90.10
2022-10-12T00:29:54.562Z,90.00
2022-10-12T00:34:08.328Z,90.10
2022-10-12T00:38:24.074Z,90.40
2022-10-12T00:42:37.721Z,90.50
2022-10-12T00:47:00.459Z,90.60
2022-10-12T00:51:15.395Z,90.60
2022-10-12T00:55:35.736Z,90.40
2022-10-12T00:59:52.756Z,90.30
2022-10-12T01:04:08.476Z,90.20
2022-10-12T01:08:22.644Z,90.30
2022-10-12T01:12:38.643Z,90.50
2022-10-12T01:16:56.203Z,90.40
2022-10-12T01:21:18.347Z,90.50
2022-10-12T01:25:47.208Z,90.90
2022-10-12T01:30:13.002Z,90.90
2022-10-12T01:34:34.379Z,90.80
2022-10-12T01:38:54.692Z,91.00
2022-10-12T01:43:09.572Z,91.00
2022-10-12T01:47:24.645Z,90.90
2022-10-12T01:51:47.865Z,90.80
2022-10-12T01:56:12.478Z,91.10
2022-10-12T02:00:26.289Z,91.10
2022-10-12T02:04:47.452Z,91.10
2022-10-12T02:09:07.094Z,91.00
2022-10-12T02:13:23.393Z,90.80
2022-10-12T02:17:38.133Z,90.70
2022-10-12T02:21:57.170Z,90.80
2022-10-12T02:26:12.381Z,90.80
2022-10-12T02:30:27.073Z,90.80
2022-10-12T02:34:45.575Z,90.80
2022-10-12T02:39:06.650Z,90.70
2022-10-12T02:43:24.463Z,90.70
2022-10-12T02:47:39.148Z,90.70
2022-10-12T02:51:54.259Z,90.80
2022-10-12T02:56:13.133Z,90.80
2022-10-12T03:00:26.973Z,90.70
2022-10-12T03:04:40.886Z,90.70
2022-10-12T03:08:57.041Z,91.10
2022-10-12T03:13:12.117Z,91.10
2022-10-12T03:17:26.175Z,91.50
2022-10-12T03:21:39.940Z,92.00
2022-10-12T03:25:54.041Z,92.50
2022-10-12T03:30:11.424Z,92.10
2022-10-12T03:34:25.389Z,92.00
2022-10-12T03:38:39.129Z,92.10
2022-10-12T03:42:52.784Z,92.40
2022-10-12T03:47:07.841Z,92.70
2022-10-12T03:51:21.547Z,92.80
2022-10-12T03:55:35.552Z,92.90
2022-10-12T03:59:49.637Z,93.00
2022-10-12T04:04:04.828Z,93.40
2022-10-12T04:08:21.463Z,93.60
2022-10-12T04:12:35.081Z,93.50
2022-10-12T04:16:48.858Z,93.50
2022-10-12T04:21:04.846Z,93.40
2022-10-12T04:25:19.067Z,93.30
2022-10-12T04:29:33.310Z,93.10
2022-10-12T04:33:47.126Z,93.20
2022-10-12T04:38:05.535Z,93.60
2022-10-12T04:42:19.159Z,94.50
2022-10-12T04:46:33.114Z,95.00
2022-10-12T04:50:46.929Z,95.30
2022-10-12T04:55:02.130Z,95.40
2022-10-12T04:59:16.265Z,95.40
2022-10-12T05:03:30.030Z,95.30
2022-10-12T05:07:43.702Z,95.00
2022-10-12T05:11:58.839Z,94.70
2022-10-12T05:16:12.563Z,94.40
2022-10-12T05:20:26.300Z,94.20
2022-10-12T05:24:39.955Z,94.00
2022-10-12T05:28:55.029Z,93.80
2022-10-12T05:33:09.365Z,93.70
2022-10-12T05:37:23.058Z,93.60
2022-10-12T05:41:37.106Z,93.70
2022-10-12T05:45:52.163Z,93.70
2022-10-12T05:50:06.559Z,93.80
2022-10-12T05:54:21.553Z,93.90
2022-10-12T05:58:35.270Z,94.00
2022-10-12T06:02:50.326Z,94.00
2022-10-12T06:07:04.178Z,94.00
2022-10-12T06:11:21.226Z,94.10
2022-10-12T06:15:36.373Z,94.30
2022-10-12T06:19:51.377Z,94.20
2022-10-12T06:24:05.457Z,94.20
2022-10-12T06:28:21.261Z,94.20
2022-10-12T06:32:35.689Z,94.10
2022-10-12T06:36:51.277Z,94.00
2022-10-12T06:41:04.964Z,94.10
2022-10-12T06:45:19.159Z,94.10
2022-10-12T06:49:32.810Z,94.10
2022-10-12T06:53:47.877Z,94.40
2022-10-12T06:58:01.576Z,96.20
2022-10-12T07:02:15.405Z,97.20
2022-10-12T07:06:29.213Z,96.50
2022-10-12T07:10:44.252Z,94.60
2022-10-12T07:14:58.975Z,89.40
2022-10-12T07:19:12.874Z,75.40
2022-10-12T07:23:26.891Z,65.40
2022-10-12T07:27:42.189Z,65.80
2022-10-12T07:31:56.030Z,60.60
2022-10-12T07:36:15.641Z,57.20
2022-10-12T07:40:33.517Z,55.30
2022-10-12T07:44:48.614Z,55.50
2022-10-12T07:49:02.981Z,54.60
2022-10-12T07:53:17.283Z,53.70
2022-10-12T07:57:31.032Z,49.10
2022-10-12T08:01:46.150Z,47.70
2022-10-12T08:05:59.900Z,46.70
2022-10-12T08:10:13.699Z,46.00
2022-10-12T08:14:27.432Z,45.30
2022-10-12T08:18:43.379Z,45.30
2022-10-12T08:22:57.081Z,45.50
2022-10-12T08:27:11.600Z,44.20
2022-10-12T08:31:25.608Z,44.10
2022-10-12T08:35:41.799Z,43.30
2022-10-12T08:39:58.588Z,43.40
2022-10-12T08:44:54.793Z,43.60
2022-10-12T08:49:14.134Z,43.60
2022-10-12T08:53:32.959Z,43.80
2022-10-12T08:57:49.895Z,41.80
2022-10-12T09:02:23.019Z,41.50
2022-10-12T09:06:42.024Z,39.90
2022-10-12T09:11:09.730Z,40.60
2022-10-12T09:15:27.574Z,40.20
2022-10-12T09:19:43.550Z,39.90
2022-10-12T09:23:58.559Z,38.80
2022-10-12T09:28:18.400Z,38.70
2022-10-12T09:32:58.933Z,39.10
2022-10-12T09:37:18.041Z,37.40
2022-10-12T09:41:39.088Z,38.10
2022-10-12T09:45:54.456Z,39.20
2022-10-12T09:50:09.505Z,38.60
2022-10-12T09:54:25.463Z,38.10
2022-10-12T09:58:44.956Z,37.60
2022-10-12T10:03:01.509Z,37.80
2022-10-12T10:07:26.233Z,36.40
2022-10-12T10:11:40.199Z,36.50
2022-10-12T10:16:04.625Z,37.10
2022-10-12T10:20:31.908Z,36.80
2022-10-12T10:24:52.793Z,36.70
2022-10-12T10:29:33.917Z,36.90
2022-10-12T10:34:05.139Z,36.30
2022-10-12T10:38:20.221Z,36.00
2022-10-12T10:42:35.827Z,35.40
2022-10-12T10:46:49.631Z,35.10
2022-10-12T10:51:05.905Z,35.20
2022-10-12T10:55:24.562Z,35.80
2022-10-12T10:59:44.377Z,35.00
2022-10-12T11:04:02.591Z,35.30
2022-10-12T11:08:21.908Z,35.50
2022-10-12T11:12:46.656Z,36.70
2022-10-12T11:17:05.215Z,36.70
2022-10-12T11:21:22.858Z,36.50
2022-10-12T11:25:48.965Z,36.20
2022-10-12T11:30:13.490Z,36.90
2022-10-12T11:34:29.690Z,37.30
2022-10-12T11:38:47.084Z,38.10
2022-10-12T11:43:06.733Z,38.60
2022-10-12T11:47:32.239Z,38.90
2022-10-12T11:51:48.263Z,39.30
2022-10-12T11:56:09.132Z,39.40
2022-10-12T12:00:27.181Z,39.70
2022-10-12T12:04:45.822Z,40.90
2022-10-12T12:09:07.516Z,42.00
2022-10-12T12:13:26.866Z,42.60
2022-10-12T12:17:40.672Z,43.10
2022-10-12T12:22:18.127Z,43.70
2022-10-12T12:26:32.516Z,44.90
2022-10-12T12:30:57.624Z,46.10
2022-10-12T12:35:31.935Z,46.70
2022-10-12T12:39:53.569Z,47.00
2022-10-12T12:44:40.470Z,47.70
2022-10-12T12:49:04.754Z,48.30
2022-10-12T12:53:21.727Z,49.40
2022-10-12T12:57:56.463Z,49.70
2022-10-12T13:02:30.050Z,50.30
2022-10-12T13:07:18.029Z,50.60
2022-10-12T13:11:49.795Z,50.50
2022-10-12T13:16:57.184Z,50.50
2022-10-12T13:20:56.525Z,51.30
2022-10-12T13:25:18.060Z,50.90
2022-10-12T13:29:40.108Z,51.30
2022-10-12T13:34:01.227Z,52.10
2022-10-12T13:38:22.485Z,51.40
2022-10-12T13:42:36.733Z,51.30
2022-10-12T13:46:52.076Z,51.60
2022-10-12T13:51:23.450Z,51.50
2022-10-12T13:55:37.231Z,51.70
2022-10-12T13:59:57.627Z,51.70
2022-10-12T14:04:11.996Z,51.90
2022-10-12T14:08:28.893Z,52.00
2022-10-12T14:12:44.134Z,52.10
2022-10-12T14:16:57.854Z,52.10
2022-10-12T14:21:23.995Z,52.00
2022-10-12T14:25:40.271Z,52.30
2022-10-12T14:30:04.948Z,52.30
2022-10-12T14:34:41.906Z,52.40
2022-10-12T14:38:59.045Z,52.90
2022-10-12T14:43:24.584Z,53.10
2022-10-12T14:47:39.944Z,53.10
2022-10-12T14:51:55.352Z,53.20
2022-10-12T14:56:10.647Z,53.00
2022-10-12T15:00:28.597Z,53.00
2022-10-12T15:04:42.533Z,52.80
2022-10-12T15:08:56.283Z,52.80
2022-10-12T15:13:13.316Z,53.10
2022-10-12T15:17:28.530Z,53.20
2022-10-12T15:21:42.269Z,53.20
2022-10-12T15:25:58.086Z,53.40
2022-10-12T15:30:13.257Z,53.60
2022-10-12T15:34:28.657Z,53.60
2022-10-12T15:38:42.423Z,53.80
2022-10-12T15:42:56.328Z,54.20
2022-10-12T15:47:11.755Z,54.80
2022-10-12T15:51:27.053Z,54.90
2022-10-12T15:55:40.654Z,55.00
2022-10-12T15:59:54.698Z,55.10
2022-10-12T16:04:08.646Z,55.20
2022-10-12T16:08:24.320Z,55.20
2022-10-12T16:12:38.630Z,55.50
2022-10-12T16:16:52.473Z,56.00
2022-10-12T16:21:06.428Z,56.40
2022-10-12T16:25:23.999Z,56.90
2022-10-12T16:29:38.836Z,57.40
2022-10-12T16:33:52.869Z,57.90
2022-10-12T16:38:06.626Z,58.40
2022-10-12T16:42:21.947Z,58.70
2022-10-12T16:46:36.906Z,59.10
2022-10-12T16:50:50.730Z,59.90
2022-10-12T16:55:05.472Z,60.20
2022-10-12T16:59:20.621Z,60.70
2022-10-12T17:03:34.319Z,61.50
2022-10-12T17:07:48.012Z,62.60
2022-10-12T17:12:01.861Z,63.40
2022-10-12T17:16:34.644Z,64.00
2022-10-12T17:20:50.746Z,64.40
2022-10-12T17:25:07.488Z,64.80
2022-10-12T17:29:22.268Z,65.00
2022-10-12T17:33:37.920Z,65.20
2022-10-12T17:37:51.552Z,65.20
2022-10-12T17:42:05.882Z,65.50
2022-10-12T17:46:22.571Z,65.90
2022-10-12T17:50:37.948Z,66.20
2022-10-12T17:54:51.905Z,66.70
2022-10-12T17:59:06.064Z,67.10
2022-10-12T18:03:25.807Z,67.40
2022-10-12T18:07:41.166Z,67.60
2022-10-12T18:11:54.960Z,67.70
2022-10-12T18:16:11.224Z,67.90
2022-10-12T18:20:28.856Z,68.10
2022-10-12T18:24:44.161Z,68.10
2022-10-12T18:29:01.005Z,68.40
2022-10-12T18:33:15.514Z,68.50
2022-10-12T18:37:29.435Z,68.80
2022-10-12T18:41:44.576Z,69.00
2022-10-12T18:45:58.277Z,69.20
2022-10-12T18:50:12.424Z,69.40
2022-10-12T18:54:26.098Z,69.50
2022-10-12T18:58:42.036Z,69.60
2022-10-12T19:02:55.830Z,69.70
2022-10-12T19:07:09.538Z,69.70
2022-10-12T19:11:24.491Z,69.90
2022-10-12T19:15:39.880Z,70.30
2022-10-12T19:19:53.524Z,70.10
2022-10-12T19:24:09.508Z,70.10
2022-10-12T19:28:23.149Z,70.10
2022-10-12T19:32:38.153Z,70.20
2022-10-12T19:36:52.788Z,70.30
2022-10-12T19:41:07.364Z,70.60
2022-10-12T19:45:20.986Z,71.00
2022-10-12T19:49:37.852Z,72.00
2022-10-12T19:53:54.642Z,71.40
2022-10-12T19:58:08.860Z,71.40
2022-10-12T20:02:22.493Z,71.90
2022-10-12T20:06:38.898Z,72.40
2022-10-12T20:10:52.892Z,73.00
2022-10-12T20:15:08.101Z,73.20
2022-10-12T20:19:21.809Z,73.30
2022-10-12T20:23:37.173Z,73.20
2022-10-12T20:27:50.799Z,73.20
2022-10-12T20:32:04.562Z,73.40
2022-10-12T20:36:21.803Z,73.50
2022-10-12T20:40:36.899Z,73.70
2022-10-12T20:44:51.129Z,74.10
2022-10-12T20:49:05.527Z,74.40
2022-10-12T20:53:19.189Z,74.50
2022-10-12T20:57:34.222Z,75.10
2022-10-12T21:01:47.977Z,75.80
2022-10-12T21:06:06.187Z,76.20
2022-10-12T21:10:19.923Z,76.70
2022-10-12T21:14:35.552Z,76.80
2022-10-12T21:18:49.568Z,77.50
2022-10-12T21:23:03.269Z,78.00
2022-10-12T21:27:17.003Z,78.10
2022-10-12T21:31:33.090Z,78.90
2022-10-12T21:35:47.317Z,79.20
2022-10-12T21:40:01.031Z,79.80
2022-10-12T21:44:15.780Z,81.30
2022-10-12T21:48:31.455Z,81.70
2022-10-12T21:52:49.641Z,82.50
2022-10-12T21:57:04.252Z,83.00
2022-10-12T22:01:20.984Z,83.30
2022-10-12T22:05:41.198Z,83.90
2022-10-12T22:09:54.837Z,84.30
2022-10-12T22:14:09.980Z,85.20
2022-10-12T22:18:23.643Z,85.90
2022-10-12T22:22:38.728Z,86.80
2022-10-12T22:26:52.433Z,87.60
2022-10-12T22:31:08.190Z,88.10
2022-10-12T22:35:22.021Z,88.60
2022-10-12T22:39:37.302Z,89.10
2022-10-12T22:43:52.402Z,89.00
2022-10-12T22:48:06.506Z,89.30
2022-10-12T22:52:20.623Z,90.20
2022-10-12T22:56:36.058Z,90.70
2022-10-12T23:00:49.918Z,91.10
2022-10-12T23:05:04.841Z,91.20
2022-10-12T23:09:18.465Z,91.20
2022-10-12T23:13:34.278Z,91.20
2022-10-12T23:17:48.538Z,91.40
2022-10-12T23:22:02.902Z,91.50
2022-10-12T23:26:18.670Z,91.60
2022-10-12T23:30:33.711Z,91.60
2022-10-12T23:34:48.684Z,91.70
2022-10-12T23:39:04.083Z,91.70
2022-10-12T23:43:17.816Z,91.50
2022-10-12T23:47:32.843Z,91.80
2022-10-12T23:51:46.796Z,91.80
2022-10-12T23:56:00.706Z,92.00
